createdAt,value
2023-03-29T00:02:10.433Z,81.29
2023-03-29T00:04:40.023Z,81.50
2023-03-29T00:07:09.354Z,81.38
2023-03-29T00:09:38.533Z,81.44
2023-03-29T00:12:08.377Z,81.55
2023-03-29T00:14:37.550Z,81.51
2023-03-29T00:17:07.675Z,81.86
2023-03-29T00:19:38.014Z,81.37
2023-03-29T00:22:07.435Z,81.25
2023-03-29T00:24:37.870Z,81.38
2023-03-29T00:27:09.093Z,81.60
2023-03-29T00:29:39.072Z,80.88
2023-03-29T00:32:09.399Z,80.38
2023-03-29T00:34:38.499Z,80.24
2023-03-29T00:37:10.293Z,80.70
2023-03-29T00:39:43.156Z,80.88
2023-03-29T00:42:17.154Z,81.15
2023-03-29T00:45:08.618Z,80.99
2023-03-29T00:47:58.137Z,80.08
2023-03-29T00:50:42.400Z,80.40
2023-03-29T00:53:37.361Z,80.46
2023-03-29T00:56:15.120Z,80.08
2023-03-29T00:59:06.175Z,80.19
2023-03-29T01:01:47.051Z,80.46
2023-03-29T01:04:30.480Z,80.78
2023-03-29T01:07:44.105Z,80.60
2023-03-29T01:10:22.066Z,80.34
2023-03-29T01:13:01.887Z,80.02
2023-03-29T01:15:31.977Z,80.29
2023-03-29T01:18:02.839Z,80.79
2023-03-29T01:20:44.765Z,80.99
2023-03-29T01:23:32.669Z,80.77
2023-03-29T01:26:40.168Z,81.03
2023-03-29T01:29:17.824Z,80.43
2023-03-29T01:31:52.966Z,80.48
2023-03-29T01:34:48.063Z,80.26
2023-03-29T01:37:25.734Z,79.61
2023-03-29T01:39:55.636Z,79.52
2023-03-29T01:42:27.658Z,79.08
2023-03-29T01:45:09.158Z,79.17
2023-03-29T01:47:38.931Z,78.73
2023-03-29T01:50:17.132Z,79.46
2023-03-29T01:53:05.229Z,77.94
2023-03-29T01:55:45.143Z,77.30
2023-03-29T01:58:16.667Z,76.23
2023-03-29T02:00:47.277Z,73.55
2023-03-29T02:03:18.665Z,70.29
2023-03-29T02:05:49.299Z,68.51
2023-03-29T02:08:20.557Z,68.49
2023-03-29T02:10:50.389Z,68.54
2023-03-29T02:13:21.178Z,68.67
2023-03-29T02:15:50.972Z,68.53
2023-03-29T02:18:22.270Z,66.92
2023-03-29T02:20:53.671Z,64.01
2023-03-29T02:23:28.676Z,63.39
2023-03-29T02:25:59.308Z,63.95
2023-03-29T02:28:30.834Z,62.99
2023-03-29T02:31:15.974Z,61.74
2023-03-29T02:34:17.243Z,59.39
2023-03-29T02:36:52.254Z,57.82
2023-03-29T02:39:22.923Z,56.85
2023-03-29T02:41:55.966Z,57.34
2023-03-29T02:44:29.762Z,56.09
2023-03-29T02:47:01.626Z,56.73
2023-03-29T02:49:31.888Z,55.63
2023-03-29T02:52:09.305Z,55.99
2023-03-29T02:54:44.235Z,54.56
2023-03-29T02:57:14.444Z,55.60
2023-03-29T02:59:45.818Z,54.98
2023-03-29T03:02:16.065Z,56.49
2023-03-29T03:04:45.944Z,57.63
2023-03-29T03:07:15.452Z,59.91
2023-03-29T03:09:44.986Z,59.26
2023-03-29T03:12:14.164Z,62.55
2023-03-29T03:14:44.398Z,59.37
2023-03-29T03:17:13.770Z,58.18
2023-03-29T03:19:43.302Z,55.15
2023-03-29T03:22:12.774Z,52.94
2023-03-29T03:24:42.829Z,55.92
2023-03-29T03:27:13.529Z,55.70
2023-03-29T03:29:43.546Z,54.34
2023-03-29T03:32:38.894Z,54.64
2023-03-29T03:35:40.368Z,54.38
2023-03-29T03:38:10.077Z,55.40
2023-03-29T03:40:39.601Z,54.06
2023-03-29T03:43:09.079Z,54.20
2023-03-29T03:45:39.005Z,53.11
2023-03-29T03:48:16.533Z,50.66
2023-03-29T03:51:00.348Z,52.85
2023-03-29T03:53:34.910Z,52.47
2023-03-29T03:56:17.538Z,51.17
2023-03-29T03:59:08.405Z,51.75
2023-03-29T04:01:51.794Z,47.80
2023-03-29T04:04:24.726Z,50.02
2023-03-29T04:07:06.682Z,48.62
2023-03-29T04:09:56.100Z,49.60
2023-03-29T04:12:41.862Z,49.94
2023-03-29T04:15:11.596Z,49.23
2023-03-29T04:17:46.300Z,50.02
2023-03-29T04:20:41.897Z,50.20
2023-03-29T04:23:12.584Z,49.14
2023-03-29T04:25:44.406Z,50.48
2023-03-29T04:28:40.935Z,52.08
2023-03-29T04:31:22.211Z,51.48
2023-03-29T04:34:14.291Z,47.85
2023-03-29T04:36:47.684Z,49.71
2023-03-29T04:39:21.425Z,48.25
2023-03-29T04:41:56.482Z,47.57
2023-03-29T04:44:29.251Z,48.32
2023-03-29T04:47:02.058Z,45.97
2023-03-29T04:50:33.881Z,45.04
2023-03-29T04:53:04.837Z,46.07
2023-03-29T04:55:34.259Z,42.32
2023-03-29T04:58:04.332Z,44.75
2023-03-29T05:00:36.325Z,46.60
2023-03-29T05:03:24.154Z,43.46
2023-03-29T05:06:13.175Z,44.16
2023-03-29T05:08:43.364Z,44.25
2023-03-29T05:11:26.406Z,42.18
2023-03-29T05:13:58.473Z,44.94
2023-03-29T05:16:31.219Z,45.54
2023-03-29T05:19:02.749Z,46.58
2023-03-29T05:21:35.420Z,41.54
2023-03-29T05:24:09.581Z,43.61
2023-03-29T05:26:56.427Z,42.13
2023-03-29T05:29:28.321Z,39.39
2023-03-29T05:32:09.735Z,39.51
2023-03-29T05:34:40.390Z,41.78
2023-03-29T05:37:10.052Z,40.21
2023-03-29T05:39:50.836Z,41.86
2023-03-29T05:42:24.761Z,38.42
2023-03-29T05:44:58.092Z,39.17
2023-03-29T05:47:27.664Z,41.10
2023-03-29T05:49:58.558Z,38.97
2023-03-29T05:52:28.716Z,40.27
2023-03-29T05:54:58.520Z,41.49
2023-03-29T05:57:28.695Z,42.40
2023-03-29T05:59:58.448Z,36.67
2023-03-29T06:02:29.807Z,35.05
2023-03-29T06:04:59.778Z,36.24
2023-03-29T06:07:42.228Z,39.42
2023-03-29T06:10:38.826Z,37.07
2023-03-29T06:13:29.307Z,38.75
2023-03-29T06:15:58.811Z,41.80
2023-03-29T06:18:29.363Z,37.58
2023-03-29T06:20:58.872Z,40.84
2023-03-29T06:23:28.540Z,39.89
2023-03-29T06:25:58.340Z,39.43
2023-03-29T06:28:28.029Z,40.15
2023-03-29T06:31:03.812Z,38.98
2023-03-29T06:33:39.276Z,37.83
2023-03-29T06:36:23.577Z,38.29
2023-03-29T06:38:53.475Z,41.55
2023-03-29T06:41:48.935Z,38.41
2023-03-29T06:44:37.304Z,37.16
2023-03-29T06:47:14.808Z,39.53
2023-03-29T06:49:44.339Z,38.72
2023-03-29T06:52:36.956Z,40.14
2023-03-29T06:55:09.063Z,37.23
2023-03-29T06:57:41.610Z,35.64
2023-03-29T07:00:20.531Z,35.98
2023-03-29T07:03:14.350Z,36.81
2023-03-29T07:05:43.804Z,37.70
2023-03-29T07:08:17.260Z,37.88
2023-03-29T07:11:02.513Z,38.36
2023-03-29T07:13:33.992Z,37.74
2023-03-29T07:16:06.745Z,35.72
2023-03-29T07:19:02.489Z,38.47
2023-03-29T07:21:55.582Z,38.04
2023-03-29T07:24:36.307Z,38.67
2023-03-29T07:27:06.103Z,36.04
2023-03-29T07:29:35.665Z,34.51
2023-03-29T07:32:05.593Z,33.34
2023-03-29T07:34:44.444Z,34.81
2023-03-29T07:37:22.004Z,34.19
2023-03-29T07:39:52.722Z,33.38
2023-03-29T07:42:49.005Z,35.92
2023-03-29T07:45:26.644Z,36.54
2023-03-29T07:48:02.521Z,35.47
2023-03-29T07:50:48.812Z,36.43
2023-03-29T07:53:21.132Z,35.84
2023-03-29T07:55:51.849Z,37.12
2023-03-29T07:58:47.732Z,37.26
2023-03-29T08:01:20.522Z,37.08
2023-03-29T08:04:09.177Z,38.35
2023-03-29T08:06:58.139Z,39.27
2023-03-29T08:09:38.693Z,39.02
2023-03-29T08:12:08.710Z,38.92
2023-03-29T08:14:39.837Z,38.86
2023-03-29T08:17:17.944Z,38.46
2023-03-29T08:19:52.418Z,36.91
2023-03-29T08:22:24.315Z,37.47
2023-03-29T08:25:13.042Z,36.80
2023-03-29T08:27:50.782Z,36.41
2023-03-29T08:30:31.118Z,37.28
2023-03-29T08:33:01.116Z,37.18
2023-03-29T08:35:30.540Z,37.39
2023-03-29T08:38:15.525Z,36.43
2023-03-29T08:40:45.292Z,35.88
2023-03-29T08:43:24.432Z,36.58
2023-03-29T08:46:51.105Z,37.80
2023-03-29T08:49:33.789Z,38.83
2023-03-29T08:52:16.204Z,36.60
2023-03-29T08:54:51.061Z,37.80
2023-03-29T08:57:57.253Z,38.38
2023-03-29T09:00:56.781Z,37.94
2023-03-29T09:03:31.850Z,36.97
2023-03-29T09:06:14.881Z,37.44
2023-03-29T09:08:50.402Z,37.95
2023-03-29T09:11:53.015Z,36.73
2023-03-29T09:14:51.236Z,37.38
2023-03-29T09:17:56.123Z,37.00
2023-03-29T09:20:38.672Z,37.03
2023-03-29T09:23:13.364Z,37.29
2023-03-29T09:26:09.708Z,37.49
2023-03-29T09:29:42.397Z,37.12
2023-03-29T09:32:23.769Z,37.18
2023-03-29T09:35:20.263Z,37.27
2023-03-29T09:37:55.999Z,38.20
2023-03-29T09:40:41.387Z,37.15
2023-03-29T09:43:19.988Z,37.00
2023-03-29T09:45:57.255Z,37.35
2023-03-29T09:48:30.711Z,36.52
2023-03-29T09:51:03.923Z,37.40
2023-03-29T09:53:34.987Z,37.77
2023-03-29T09:56:35.895Z,38.31
2023-03-29T09:59:14.090Z,37.15
2023-03-29T10:01:48.983Z,37.09
2023-03-29T10:04:20.127Z,37.07
2023-03-29T10:06:57.553Z,37.15
2023-03-29T10:09:32.039Z,37.35
2023-03-29T10:12:17.697Z,37.27
2023-03-29T10:14:55.896Z,36.83
2023-03-29T10:17:31.348Z,35.58
2023-03-29T10:20:04.992Z,36.72
2023-03-29T10:22:43.027Z,36.71
2023-03-29T10:25:18.690Z,36.77
2023-03-29T10:27:50.162Z,37.65
2023-03-29T10:30:29.488Z,36.51
2023-03-29T10:33:01.327Z,37.30
2023-03-29T10:35:35.132Z,37.70
2023-03-29T10:38:17.879Z,35.74
2023-03-29T10:40:51.610Z,37.93
2023-03-29T10:43:36.954Z,40.55
2023-03-29T10:46:14.487Z,40.03
2023-03-29T10:48:59.442Z,41.84
2023-03-29T10:51:35.695Z,40.29
2023-03-29T10:54:08.601Z,42.36
2023-03-29T10:56:42.618Z,42.03
2023-03-29T10:59:34.669Z,43.11
2023-03-29T11:02:30.663Z,43.50
2023-03-29T11:05:19.213Z,43.58
2023-03-29T11:08:09.892Z,44.06
2023-03-29T11:10:54.438Z,44.31
2023-03-29T11:13:35.151Z,44.94
2023-03-29T11:16:14.085Z,46.71
2023-03-29T11:19:14.169Z,46.39
2023-03-29T11:22:21.906Z,46.92
2023-03-29T11:25:14.405Z,47.19
2023-03-29T11:27:52.419Z,47.04
2023-03-29T11:31:03.714Z,46.99
2023-03-29T11:34:15.780Z,46.98
2023-03-29T11:36:59.754Z,47.35
2023-03-29T11:40:15.924Z,47.49
2023-03-29T11:42:50.072Z,45.85
2023-03-29T11:45:42.012Z,45.75
2023-03-29T11:48:25.682Z,45.44
2023-03-29T11:51:02.449Z,45.66
2023-03-29T11:53:57.510Z,44.68
2023-03-29T11:56:51.176Z,44.60
2023-03-29T11:59:42.228Z,45.30
2023-03-29T12:02:29.932Z,43.89
2023-03-29T12:05:10.955Z,44.35
2023-03-29T12:08:01.834Z,44.13
2023-03-29T12:10:51.029Z,43.71
2023-03-29T12:13:26.883Z,44.04
2023-03-29T12:16:45.450Z,43.20
2023-03-29T12:19:33.089Z,43.11
2023-03-29T12:22:03.507Z,42.24
2023-03-29T12:24:40.887Z,41.61
2023-03-29T12:27:25.250Z,42.92
2023-03-29T12:30:16.305Z,41.26
2023-03-29T12:32:54.567Z,42.65
2023-03-29T12:36:33.229Z,45.03
2023-03-29T12:39:24.388Z,45.39
2023-03-29T12:42:23.456Z,46.45
2023-03-29T12:45:36.358Z,46.76
2023-03-29T12:48:09.695Z,45.46
2023-03-29T12:50:52.046Z,45.64
2023-03-29T12:53:37.179Z,45.98
2023-03-29T12:56:21.908Z,46.85
2023-03-29T12:59:18.494Z,49.30
2023-03-29T13:02:26.661Z,47.79
2023-03-29T13:05:06.151Z,46.39
2023-03-29T13:08:01.004Z,46.07
2023-03-29T13:10:43.671Z,45.00
2023-03-29T13:13:20.818Z,45.22
2023-03-29T13:15:54.031Z,45.90
2023-03-29T13:18:54.495Z,46.50
2023-03-29T13:21:42.448Z,44.64
2023-03-29T13:24:17.975Z,41.96
2023-03-29T13:26:56.955Z,42.64
2023-03-29T13:29:41.192Z,41.72
2023-03-29T13:32:30.034Z,41.88
2023-03-29T13:35:38.625Z,42.17
2023-03-29T13:38:32.410Z,41.74
2023-03-29T13:41:02.719Z,41.56
2023-03-29T13:43:56.269Z,42.30
2023-03-29T13:46:47.056Z,42.26
2023-03-29T13:49:31.117Z,42.59
2023-03-29T13:52:25.977Z,43.37
2023-03-29T13:55:19.529Z,43.09
2023-03-29T13:58:06.574Z,43.27
2023-03-29T14:00:46.067Z,43.58
2023-03-29T14:03:21.881Z,43.87
2023-03-29T14:06:04.133Z,44.38
2023-03-29T14:08:45.554Z,45.02
2023-03-29T14:11:38.511Z,44.89
2023-03-29T14:14:14.104Z,45.05
2023-03-29T14:16:48.616Z,44.83
2023-03-29T14:19:23.526Z,45.45
2023-03-29T14:22:03.102Z,44.85
2023-03-29T14:24:46.076Z,45.59
2023-03-29T14:27:16.497Z,45.79
2023-03-29T14:29:53.554Z,46.64
2023-03-29T14:32:31.204Z,48.40
2023-03-29T14:35:10.703Z,49.39
2023-03-29T14:37:47.510Z,50.70
2023-03-29T14:40:21.904Z,50.64
2023-03-29T14:42:54.183Z,52.94
2023-03-29T14:45:26.800Z,52.41
2023-03-29T14:47:57.109Z,54.39
2023-03-29T14:50:31.963Z,54.37
2023-03-29T14:53:07.206Z,53.18
2023-03-29T14:55:41.216Z,54.20
2023-03-29T14:58:25.650Z,56.30
2023-03-29T15:00:56.731Z,56.09
2023-03-29T15:03:30.477Z,57.03
2023-03-29T15:06:05.510Z,58.13
2023-03-29T15:08:45.796Z,58.15
2023-03-29T15:11:30.458Z,58.75
2023-03-29T15:14:15.124Z,58.51
2023-03-29T15:16:46.882Z,58.72
2023-03-29T15:19:21.562Z,58.14
2023-03-29T15:21:52.352Z,59.31
2023-03-29T15:24:33.800Z,58.90
2023-03-29T15:27:07.127Z,58.55
2023-03-29T15:29:42.800Z,58.66
2023-03-29T15:32:21.601Z,58.60
2023-03-29T15:35:01.647Z,58.99
2023-03-29T15:37:31.122Z,59.32
2023-03-29T15:40:00.211Z,58.77
2023-03-29T15:42:30.438Z,58.76
2023-03-29T15:44:59.866Z,58.76
2023-03-29T15:47:30.144Z,58.95
2023-03-29T15:49:59.517Z,58.50
2023-03-29T15:52:30.878Z,58.77
2023-03-29T15:55:00.285Z,59.00
2023-03-29T15:57:29.893Z,59.57
2023-03-29T15:59:59.668Z,59.56
2023-03-29T16:02:29.271Z,59.50
2023-03-29T16:04:58.922Z,59.78
2023-03-29T16:07:29.400Z,59.95
2023-03-29T16:09:58.825Z,59.74
2023-03-29T16:12:28.054Z,60.62
2023-03-29T16:14:57.461Z,59.96
2023-03-29T16:17:26.778Z,60.65
2023-03-29T16:19:56.067Z,59.92
2023-03-29T16:22:26.159Z,59.34
2023-03-29T16:24:55.327Z,59.28
2023-03-29T16:27:24.772Z,60.05
2023-03-29T16:29:54.046Z,60.57
2023-03-29T16:32:23.503Z,59.80
2023-03-29T16:34:53.443Z,59.40
2023-03-29T16:37:22.546Z,59.68
2023-03-29T16:39:52.619Z,60.66
2023-03-29T16:42:22.100Z,60.73
2023-03-29T16:44:51.775Z,60.48
2023-03-29T16:47:21.455Z,60.70
2023-03-29T16:49:51.041Z,60.00
2023-03-29T16:52:20.615Z,61.17
2023-03-29T16:54:50.250Z,60.87
2023-03-29T16:57:20.399Z,60.86
2023-03-29T16:59:50.326Z,61.22
2023-03-29T17:02:20.365Z,62.16
2023-03-29T17:04:49.872Z,62.49
2023-03-29T17:07:19.663Z,61.66
2023-03-29T17:09:49.626Z,62.02
2023-03-29T17:12:20.478Z,62.54
2023-03-29T17:14:51.248Z,63.06
2023-03-29T17:17:21.087Z,62.78
2023-03-29T17:19:51.885Z,63.29
2023-03-29T17:22:21.857Z,63.17
2023-03-29T17:24:52.776Z,63.71
2023-03-29T17:27:22.542Z,62.93
2023-03-29T17:29:52.934Z,63.25
2023-03-29T17:32:23.398Z,63.37
2023-03-29T17:34:55.481Z,63.57
2023-03-29T17:37:25.801Z,63.65
2023-03-29T17:39:57.147Z,63.91
2023-03-29T17:42:31.040Z,64.04
2023-03-29T17:45:02.288Z,64.15
2023-03-29T17:47:33.180Z,64.04
2023-03-29T17:50:05.780Z,63.94
2023-03-29T17:52:36.255Z,64.02
2023-03-29T17:55:07.217Z,64.34
2023-03-29T17:57:38.219Z,63.99
2023-03-29T18:00:14.693Z,63.87
2023-03-29T18:02:45.909Z,64.09
2023-03-29T18:05:17.829Z,63.55
2023-03-29T18:07:49.483Z,63.59
2023-03-29T18:10:21.553Z,63.51
2023-03-29T18:12:51.867Z,63.67
2023-03-29T18:15:23.015Z,63.62
2023-03-29T18:17:53.537Z,63.68
2023-03-29T18:20:25.403Z,63.29
2023-03-29T18:22:56.324Z,63.64
2023-03-29T18:25:27.576Z,64.07
2023-03-29T18:27:57.932Z,63.82
2023-03-29T18:30:29.285Z,63.73
2023-03-29T18:32:59.888Z,64.20
2023-03-29T18:35:30.792Z,64.34
2023-03-29T18:38:01.383Z,65.03
2023-03-29T18:40:32.415Z,65.64
2023-03-29T18:43:03.327Z,65.15
2023-03-29T18:45:34.265Z,64.05
2023-03-29T18:48:06.744Z,62.89
2023-03-29T18:50:37.462Z,62.35
2023-03-29T18:53:07.950Z,59.83
2023-03-29T18:55:38.388Z,59.29
2023-03-29T18:58:11.695Z,59.08
2023-03-29T19:00:45.264Z,58.30
2023-03-29T19:03:15.792Z,58.52
2023-03-29T19:05:46.197Z,58.81
2023-03-29T19:08:16.245Z,58.38
2023-03-29T19:10:45.607Z,58.44
2023-03-29T19:13:15.791Z,58.33
2023-03-29T19:15:46.774Z,58.63
2023-03-29T19:18:16.754Z,58.39
2023-03-29T19:20:46.824Z,60.28
2023-03-29T19:23:17.942Z,61.27
2023-03-29T19:25:59.329Z,62.32
2023-03-29T19:28:30.274Z,63.14
2023-03-29T19:31:02.441Z,64.10
2023-03-29T19:33:33.667Z,65.17
2023-03-29T19:36:04.456Z,66.21
2023-03-29T19:38:34.977Z,66.62
2023-03-29T19:41:09.163Z,67.09
2023-03-29T19:43:39.219Z,67.43
2023-03-29T19:46:14.458Z,68.17
2023-03-29T19:48:44.320Z,68.90
2023-03-29T19:51:14.320Z,69.70
2023-03-29T19:53:45.011Z,70.14
2023-03-29T19:56:15.898Z,70.49
2023-03-29T19:58:45.339Z,70.64
2023-03-29T20:01:19.186Z,70.95
2023-03-29T20:03:51.518Z,70.81
2023-03-29T20:06:22.580Z,70.81
2023-03-29T20:08:54.254Z,70.82
2023-03-29T20:11:25.734Z,71.10
2023-03-29T20:13:57.074Z,71.14
2023-03-29T20:16:28.126Z,71.00
2023-03-29T20:18:58.553Z,70.89
2023-03-29T20:21:28.715Z,70.90
2023-03-29T20:23:59.260Z,71.05
2023-03-29T20:26:30.296Z,71.05
2023-03-29T20:29:00.469Z,71.51
2023-03-29T20:31:31.338Z,71.55
2023-03-29T20:34:01.960Z,71.54
2023-03-29T20:36:33.245Z,71.51
2023-03-29T20:39:04.330Z,71.44
2023-03-29T20:41:34.867Z,71.35
2023-03-29T20:44:05.860Z,71.32
2023-03-29T20:46:35.970Z,71.15
2023-03-29T20:49:10.227Z,70.63
2023-03-29T20:51:40.303Z,70.41
2023-03-29T20:54:11.547Z,70.90
2023-03-29T20:56:43.473Z,70.98
2023-03-29T20:59:13.374Z,70.61
2023-03-29T21:01:43.767Z,70.87
2023-03-29T21:04:14.349Z,70.39
2023-03-29T21:06:46.747Z,70.46
2023-03-29T21:09:16.146Z,70.85
2023-03-29T21:11:46.163Z,70.64
2023-03-29T21:14:20.729Z,70.67
2023-03-29T21:16:50.937Z,70.35
2023-03-29T21:19:21.006Z,70.48
2023-03-29T21:21:53.430Z,70.93
2023-03-29T21:24:24.088Z,70.33
2023-03-29T21:26:53.758Z,70.90
2023-03-29T21:29:23.946Z,70.01
2023-03-29T21:31:54.129Z,70.24
2023-03-29T21:34:24.562Z,69.78
2023-03-29T21:36:55.112Z,69.61
2023-03-29T21:39:28.314Z,69.86
2023-03-29T21:42:00.500Z,70.48
2023-03-29T21:44:32.578Z,70.12
2023-03-29T21:47:04.256Z,70.28
2023-03-29T21:49:34.768Z,69.99
2023-03-29T21:52:04.810Z,70.53
2023-03-29T21:54:35.570Z,69.85
2023-03-29T21:57:05.820Z,70.03
2023-03-29T21:59:36.975Z,68.74
2023-03-29T22:02:07.215Z,68.74
2023-03-29T22:04:37.892Z,68.96
2023-03-29T22:07:11.759Z,68.67
2023-03-29T22:09:43.728Z,67.46
2023-03-29T22:12:13.322Z,67.22
2023-03-29T22:14:43.373Z,67.10
2023-03-29T22:17:13.112Z,66.74
2023-03-29T22:19:43.023Z,66.36
2023-03-29T22:22:16.054Z,66.97
2023-03-29T22:24:46.571Z,67.26
2023-03-29T22:27:16.492Z,67.27
2023-03-29T22:29:47.075Z,66.58
2023-03-29T22:32:18.312Z,66.88
2023-03-29T22:34:47.955Z,67.12
2023-03-29T22:37:17.673Z,67.63
2023-03-29T22:39:47.304Z,66.81
2023-03-29T22:42:17.597Z,67.29
2023-03-29T22:44:48.424Z,67.21
2023-03-29T22:47:18.639Z,66.59
2023-03-29T22:49:48.853Z,65.89
2023-03-29T22:52:18.841Z,66.99
2023-03-29T22:54:48.953Z,67.08
2023-03-29T22:57:19.375Z,68.27
2023-03-29T22:59:50.015Z,67.83
2023-03-29T23:02:20.370Z,68.01
2023-03-29T23:04:50.739Z,68.30
2023-03-29T23:07:20.940Z,67.89
2023-03-29T23:09:51.764Z,68.01
2023-03-29T23:12:22.547Z,67.84
2023-03-29T23:14:54.407Z,67.20
2023-03-29T23:17:25.328Z,66.79
2023-03-29T23:19:55.734Z,67.16
2023-03-29T23:22:26.420Z,66.75
2023-03-29T23:24:56.682Z,67.20
2023-03-29T23:27:27.306Z,67.07
2023-03-29T23:29:57.941Z,67.37
2023-03-29T23:32:28.415Z,66.48
2023-03-29T23:34:59.378Z,66.78
2023-03-29T23:37:29.511Z,67.31
2023-03-29T23:40:00.214Z,66.94
2023-03-29T23:42:31.635Z,66.73
2023-03-29T23:45:01.875Z,66.67
2023-03-29T23:47:32.519Z,67.12
2023-03-29T23:50:05.291Z,66.35
2023-03-29T23:52:36.926Z,66.26
2023-03-29T23:55:09.841Z,66.69
2023-03-29T23:57:45.201Z,66.55
